Terminal Aerodrome Forecast
Issued by NWS Kansas City/Pleasant Hill, MO

Home | Current Version | Previous Version | Text Only | Print | Product List | Glossary On
Versions: 1 2 3 4 5 6 7 8 9 10 11 12 13 14 15 16 17
000
FTUS43 KEAX 191100
TAFMCI
TAF
KMCI 191134Z 1912/2012 16009KT 6SM BR OVC004
     FM191400 15010KT P6SM BKN008
     FM191600 17011KT P6SM SCT025
      TEMPO 1917/1919 BKN025=

USA.gov is the U.S. government's official web portal to all federal, state and local government web resources and services.